sensor_id;sensor_type;location;lat;lon;timestamp;temperature;humidity
14401;DHT22;7285;50.894;5.462;2023-07-29T00:02:01;18.50;99.90
14401;DHT22;7285;50.894;5.462;2023-07-29T00:04:28;18.50;99.90
14401;DHT22;7285;50.894;5.462;2023-07-29T00:06:55;18.40;99.90
14401;DHT22;7285;50.894;5.462;2023-07-29T00:09:22;18.50;99.90
14401;DHT22;7285;50.894;5.462;2023-07-29T00:11:49;18.40;99.90
14401;DHT22;7285;50.894;5.462;2023-07-29T00:14:18;18.40;99.90
14401;DHT22;7285;50.894;5.462;2023-07-29T00:16:45;18.50;99.90
14401;DHT22;7285;50.894;5.462;2023-07-29T00:19:12;18.60;99.90
14401;DHT22;7285;50.894;5.462;2023-07-29T00:21:39;18.50;99.90
14401;DHT22;7285;50.894;5.462;2023-07-29T00:24:06;18.60;99.90
14401;DHT22;7285;50.894;5.462;2023-07-29T00:26:33;18.60;99.90
14401;DHT22;7285;50.894;5.462;2023-07-29T00:29:01;18.60;99.90
14401;DHT22;7285;50.894;5.462;2023-07-29T00:31:29;18.50;99.90
14401;DHT22;7285;50.894;5.462;2023-07-29T00:33:56;18.50;99.90
14401;DHT22;7285;50.894;5.462;2023-07-29T00:36:23;18.50;99.90
14401;DHT22;7285;50.894;5.462;2023-07-29T00:38:50;18.50;99.90
14401;DHT22;7285;50.894;5.462;2023-07-29T00:41:19;18.50;99.90
14401;DHT22;7285;50.894;5.462;2023-07-29T00:43:47;18.70;99.90
14401;DHT22;7285;50.894;5.462;2023-07-29T00:46:14;18.60;99.90
14401;DHT22;7285;50.894;5.462;2023-07-29T00:48:43;18.70;99.90
14401;DHT22;7285;50.894;5.462;2023-07-29T00:51:10;18.50;99.90
14401;DHT22;7285;50.894;5.462;2023-07-29T00:53:37;18.70;99.90
14401;DHT22;7285;50.894;5.462;2023-07-29T00:56:04;18.70;99.90
14401;DHT22;7285;50.894;5.462;2023-07-29T00:58:31;18.60;99.90
14401;DHT22;7285;50.894;5.462;2023-07-29T01:00:58;18.70;99.90
14401;DHT22;7285;50.894;5.462;2023-07-29T01:03:26;18.50;99.90
14401;DHT22;7285;50.894;5.462;2023-07-29T01:06:01;18.60;99.90
14401;DHT22;7285;50.894;5.462;2023-07-29T01:08:38;18.80;99.90
14401;DHT22;7285;50.894;5.462;2023-07-29T01:11:18;18.80;99.90
14401;DHT22;7285;50.894;5.462;2023-07-29T01:13:53;18.70;99.90
14401;DHT22;7285;50.894;5.462;2023-07-29T01:16:31;18.70;99.90
14401;DHT22;7285;50.894;5.462;2023-07-29T01:19:05;18.50;99.90
14401;DHT22;7285;50.894;5.462;2023-07-29T01:21:35;18.50;99.90
14401;DHT22;7285;50.894;5.462;2023-07-29T01:24:05;18.50;99.90
14401;DHT22;7285;50.894;5.462;2023-07-29T01:26:32;18.60;99.90
14401;DHT22;7285;50.894;5.462;2023-07-29T01:28:59;18.50;99.90
14401;DHT22;7285;50.894;5.462;2023-07-29T01:31:32;18.60;99.90
14401;DHT22;7285;50.894;5.462;2023-07-29T01:34:06;18.60;99.90
14401;DHT22;7285;50.894;5.462;2023-07-29T01:36:34;18.60;99.90
14401;DHT22;7285;50.894;5.462;2023-07-29T01:39:05;18.60;99.90
14401;DHT22;7285;50.894;5.462;2023-07-29T01:41:34;18.50;99.90
14401;DHT22;7285;50.894;5.462;2023-07-29T01:44:02;18.50;99.90
14401;DHT22;7285;50.894;5.462;2023-07-29T01:46:29;18.60;99.90
14401;DHT22;7285;50.894;5.462;2023-07-29T01:48:58;18.50;99.90
14401;DHT22;7285;50.894;5.462;2023-07-29T01:51:25;18.50;99.90
14401;DHT22;7285;50.894;5.462;2023-07-29T01:53:52;18.50;99.90
14401;DHT22;7285;50.894;5.462;2023-07-29T01:56:22;18.60;99.90
14401;DHT22;7285;50.894;5.462;2023-07-29T01:58:49;18.40;99.90
14401;DHT22;7285;50.894;5.462;2023-07-29T02:01:16;18.40;99.90
14401;DHT22;7285;50.894;5.462;2023-07-29T02:03:43;18.40;99.90
14401;DHT22;7285;50.894;5.462;2023-07-29T02:06:10;18.30;99.90
14401;DHT22;7285;50.894;5.462;2023-07-29T02:08:38;18.40;99.90
14401;DHT22;7285;50.894;5.462;2023-07-29T02:11:06;18.30;99.90
14401;DHT22;7285;50.894;5.462;2023-07-29T02:13:37;18.30;99.90
14401;DHT22;7285;50.894;5.462;2023-07-29T02:16:04;18.20;99.90
14401;DHT22;7285;50.894;5.462;2023-07-29T02:18:31;18.30;99.90
14401;DHT22;7285;50.894;5.462;2023-07-29T02:21:00;18.20;99.90
14401;DHT22;7285;50.894;5.462;2023-07-29T02:23:27;18.10;99.90
14401;DHT22;7285;50.894;5.462;2023-07-29T02:25:54;18.20;99.90
14401;DHT22;7285;50.894;5.462;2023-07-29T02:28:21;18.20;99.90
14401;DHT22;7285;50.894;5.462;2023-07-29T02:31:09;17.90;99.90
14401;DHT22;7285;50.894;5.462;2023-07-29T02:33:36;18.10;99.90
14401;DHT22;7285;50.894;5.462;2023-07-29T02:36:03;18.00;99.90
14401;DHT22;7285;50.894;5.462;2023-07-29T02:38:30;17.90;99.90
14401;DHT22;7285;50.894;5.462;2023-07-29T02:40:57;17.90;99.90
14401;DHT22;7285;50.894;5.462;2023-07-29T02:43:24;17.90;99.90
14401;DHT22;7285;50.894;5.462;2023-07-29T02:45:52;17.80;99.90
14401;DHT22;7285;50.894;5.462;2023-07-29T02:48:19;17.80;99.90
14401;DHT22;7285;50.894;5.462;2023-07-29T02:50:47;17.70;99.90
14401;DHT22;7285;50.894;5.462;2023-07-29T02:53:14;17.60;99.90
14401;DHT22;7285;50.894;5.462;2023-07-29T02:55:41;17.70;99.90
14401;DHT22;7285;50.894;5.462;2023-07-29T02:58:08;17.70;99.90
14401;DHT22;7285;50.894;5.462;2023-07-29T03:00:35;17.60;99.90
14401;DHT22;7285;50.894;5.462;2023-07-29T03:03:04;17.60;99.90
14401;DHT22;7285;50.894;5.462;2023-07-29T03:05:31;17.60;99.90
14401;DHT22;7285;50.894;5.462;2023-07-29T03:07:58;17.50;99.90
14401;DHT22;7285;50.894;5.462;2023-07-29T03:10:25;17.50;99.90
14401;DHT22;7285;50.894;5.462;2023-07-29T03:12:54;17.40;99.90
14401;DHT22;7285;50.894;5.462;2023-07-29T03:15:23;17.50;99.90
14401;DHT22;7285;50.894;5.462;2023-07-29T03:17:51;17.40;99.90
14401;DHT22;7285;50.894;5.462;2023-07-29T03:20:19;17.40;99.90
14401;DHT22;7285;50.894;5.462;2023-07-29T03:22:46;17.30;99.90
14401;DHT22;7285;50.894;5.462;2023-07-29T03:25:14;17.40;99.90
14401;DHT22;7285;50.894;5.462;2023-07-29T03:27:41;17.20;99.90
14401;DHT22;7285;50.894;5.462;2023-07-29T03:30:08;17.20;99.90
14401;DHT22;7285;50.894;5.462;2023-07-29T03:32:37;17.30;99.90
14401;DHT22;7285;50.894;5.462;2023-07-29T03:35:05;17.30;99.90
14401;DHT22;7285;50.894;5.462;2023-07-29T03:37:33;17.20;99.90
14401;DHT22;7285;50.894;5.462;2023-07-29T03:40:00;17.10;99.90
14401;DHT22;7285;50.894;5.462;2023-07-29T03:42:28;17.20;99.90
14401;DHT22;7285;50.894;5.462;2023-07-29T03:44:55;17.10;99.90
14401;DHT22;7285;50.894;5.462;2023-07-29T03:47:24;17.10;99.90
14401;DHT22;7285;50.894;5.462;2023-07-29T03:49:51;17.10;99.90
14401;DHT22;7285;50.894;5.462;2023-07-29T03:52:18;17.00;99.90
14401;DHT22;7285;50.894;5.462;2023-07-29T03:54:47;17.10;99.90
14401;DHT22;7285;50.894;5.462;2023-07-29T03:57:14;17.10;99.90
14401;DHT22;7285;50.894;5.462;2023-07-29T03:59:41;17.00;99.90
14401;DHT22;7285;50.894;5.462;2023-07-29T04:02:08;16.90;99.90
14401;DHT22;7285;50.894;5.462;2023-07-29T04:04:35;17.00;99.90
14401;DHT22;7285;50.894;5.462;2023-07-29T04:07:02;17.00;99.90
14401;DHT22;7285;50.894;5.462;2023-07-29T04:09:29;16.90;99.90
14401;DHT22;7285;50.894;5.462;2023-07-29T04:11:59;16.90;99.90
14401;DHT22;7285;50.894;5.462;2023-07-29T04:14:26;16.90;99.90
14401;DHT22;7285;50.894;5.462;2023-07-29T04:16:52;16.80;99.90
14401;DHT22;7285;50.894;5.462;2023-07-29T04:19:19;16.70;99.90
14401;DHT22;7285;50.894;5.462;2023-07-29T04:21:46;16.80;99.90
14401;DHT22;7285;50.894;5.462;2023-07-29T04:24:13;16.80;99.90
14401;DHT22;7285;50.894;5.462;2023-07-29T04:26:40;16.80;99.90
14401;DHT22;7285;50.894;5.462;2023-07-29T04:29:09;16.80;99.90
14401;DHT22;7285;50.894;5.462;2023-07-29T04:31:37;16.70;99.90
14401;DHT22;7285;50.894;5.462;2023-07-29T04:34:05;16.70;99.90
14401;DHT22;7285;50.894;5.462;2023-07-29T04:36:32;16.80;99.90
14401;DHT22;7285;50.894;5.462;2023-07-29T04:39:00;16.70;99.90
14401;DHT22;7285;50.894;5.462;2023-07-29T04:41:26;16.80;99.90
14401;DHT22;7285;50.894;5.462;2023-07-29T04:43:55;16.80;99.90
14401;DHT22;7285;50.894;5.462;2023-07-29T04:46:24;16.70;99.90
14401;DHT22;7285;50.894;5.462;2023-07-29T04:48:51;16.70;99.90
14401;DHT22;7285;50.894;5.462;2023-07-29T04:51:18;16.80;99.90
14401;DHT22;7285;50.894;5.462;2023-07-29T04:53:45;16.70;99.90
14401;DHT22;7285;50.894;5.462;2023-07-29T04:56:12;16.70;99.90
14401;DHT22;7285;50.894;5.462;2023-07-29T04:58:39;16.70;99.90
14401;DHT22;7285;50.894;5.462;2023-07-29T05:01:06;16.80;99.90
14401;DHT22;7285;50.894;5.462;2023-07-29T05:03:35;16.70;99.90
14401;DHT22;7285;50.894;5.462;2023-07-29T05:06:05;16.70;99.90
14401;DHT22;7285;50.894;5.462;2023-07-29T05:08:32;16.70;99.90
14401;DHT22;7285;50.894;5.462;2023-07-29T05:10:59;16.70;99.90
14401;DHT22;7285;50.894;5.462;2023-07-29T05:13:26;16.70;99.90
14401;DHT22;7285;50.894;5.462;2023-07-29T05:15:53;16.70;99.90
14401;DHT22;7285;50.894;5.462;2023-07-29T05:18:20;16.80;99.90
14401;DHT22;7285;50.894;5.462;2023-07-29T05:20:48;16.80;99.90
14401;DHT22;7285;50.894;5.462;2023-07-29T05:23:15;16.60;99.90
14401;DHT22;7285;50.894;5.462;2023-07-29T05:25:42;16.80;99.90
14401;DHT22;7285;50.894;5.462;2023-07-29T05:28:09;16.70;99.90
14401;DHT22;7285;50.894;5.462;2023-07-29T05:30:36;16.80;99.90
14401;DHT22;7285;50.894;5.462;2023-07-29T05:33:05;16.80;99.90
14401;DHT22;7285;50.894;5.462;2023-07-29T05:35:33;16.90;99.90
14401;DHT22;7285;50.894;5.462;2023-07-29T05:38:01;16.90;99.90
14401;DHT22;7285;50.894;5.462;2023-07-29T05:40:30;16.90;99.90
14401;DHT22;7285;50.894;5.462;2023-07-29T05:42:57;17.10;99.90
14401;DHT22;7285;50.894;5.462;2023-07-29T05:45:24;17.00;99.90
14401;DHT22;7285;50.894;5.462;2023-07-29T05:47:51;17.20;99.90
14401;DHT22;7285;50.894;5.462;2023-07-29T05:50:19;17.20;99.90
14401;DHT22;7285;50.894;5.462;2023-07-29T05:52:46;17.10;99.90
14401;DHT22;7285;50.894;5.462;2023-07-29T05:55:15;17.30;99.90
14401;DHT22;7285;50.894;5.462;2023-07-29T05:57:42;17.20;99.90
14401;DHT22;7285;50.894;5.462;2023-07-29T06:00:10;17.20;99.90
14401;DHT22;7285;50.894;5.462;2023-07-29T06:02:37;17.20;99.90
14401;DHT22;7285;50.894;5.462;2023-07-29T06:05:05;17.20;99.90
14401;DHT22;7285;50.894;5.462;2023-07-29T06:07:32;17.40;99.90
14401;DHT22;7285;50.894;5.462;2023-07-29T06:10:00;17.40;99.90
14401;DHT22;7285;50.894;5.462;2023-07-29T06:12:28;17.30;99.90
14401;DHT22;7285;50.894;5.462;2023-07-29T06:14:56;17.40;99.90
14401;DHT22;7285;50.894;5.462;2023-07-29T06:17:23;17.30;99.90
14401;DHT22;7285;50.894;5.462;2023-07-29T06:19:50;17.30;99.90
14401;DHT22;7285;50.894;5.462;2023-07-29T06:22:17;17.20;99.90
14401;DHT22;7285;50.894;5.462;2023-07-29T06:24:44;17.20;99.90
14401;DHT22;7285;50.894;5.462;2023-07-29T06:27:11;17.30;99.90
14401;DHT22;7285;50.894;5.462;2023-07-29T06:29:40;17.40;99.90
14401;DHT22;7285;50.894;5.462;2023-07-29T06:32:07;17.50;99.90
14401;DHT22;7285;50.894;5.462;2023-07-29T06:34:34;17.70;99.90
14401;DHT22;7285;50.894;5.462;2023-07-29T06:37:01;17.80;99.90
14401;DHT22;7285;50.894;5.462;2023-07-29T06:39:28;17.90;99.90
14401;DHT22;7285;50.894;5.462;2023-07-29T06:41:55;18.00;99.90
14401;DHT22;7285;50.894;5.462;2023-07-29T06:44:21;18.30;99.90
14401;DHT22;7285;50.894;5.462;2023-07-29T06:46:50;18.30;99.90
14401;DHT22;7285;50.894;5.462;2023-07-29T06:49:17;18.40;99.90
14401;DHT22;7285;50.894;5.462;2023-07-29T06:51:44;18.30;99.90
14401;DHT22;7285;50.894;5.462;2023-07-29T06:54:24;18.30;99.90
14401;DHT22;7285;50.894;5.462;2023-07-29T06:56:51;18.30;99.90
14401;DHT22;7285;50.894;5.462;2023-07-29T06:59:18;18.40;99.90
14401;DHT22;7285;50.894;5.462;2023-07-29T07:01:45;18.50;99.90
14401;DHT22;7285;50.894;5.462;2023-07-29T07:04:14;18.50;99.90
14401;DHT22;7285;50.894;5.462;2023-07-29T07:06:41;18.50;99.90
14401;DHT22;7285;50.894;5.462;2023-07-29T07:09:08;18.60;99.90
14401;DHT22;7285;50.894;5.462;2023-07-29T07:11:35;18.50;99.90
14401;DHT22;7285;50.894;5.462;2023-07-29T07:14:02;18.70;99.90
14401;DHT22;7285;50.894;5.462;2023-07-29T07:16:28;18.80;99.90
14401;DHT22;7285;50.894;5.462;2023-07-29T07:18:56;18.80;99.90
14401;DHT22;7285;50.894;5.462;2023-07-29T07:21:24;18.90;99.90
14401;DHT22;7285;50.894;5.462;2023-07-29T07:23:51;19.00;99.90
14401;DHT22;7285;50.894;5.462;2023-07-29T07:26:18;19.10;99.90
14401;DHT22;7285;50.894;5.462;2023-07-29T07:28:46;19.20;99.90
14401;DHT22;7285;50.894;5.462;2023-07-29T07:31:13;19.10;99.90
14401;DHT22;7285;50.894;5.462;2023-07-29T07:33:42;19.10;99.90
14401;DHT22;7285;50.894;5.462;2023-07-29T07:36:09;19.00;99.90
14401;DHT22;7285;50.894;5.462;2023-07-29T07:38:37;19.00;99.90
14401;DHT22;7285;50.894;5.462;2023-07-29T07:41:04;19.00;99.90
14401;DHT22;7285;50.894;5.462;2023-07-29T07:43:31;19.00;99.90
14401;DHT22;7285;50.894;5.462;2023-07-29T07:45:59;19.00;99.90
14401;DHT22;7285;50.894;5.462;2023-07-29T07:48:26;19.10;99.90
14401;DHT22;7285;50.894;5.462;2023-07-29T07:50:53;19.10;99.90
14401;DHT22;7285;50.894;5.462;2023-07-29T07:53:20;19.10;99.90
14401;DHT22;7285;50.894;5.462;2023-07-29T07:55:48;19.00;99.90
14401;DHT22;7285;50.894;5.462;2023-07-29T07:58:15;19.00;99.90
14401;DHT22;7285;50.894;5.462;2023-07-29T08:00:42;19.10;99.90
14401;DHT22;7285;50.894;5.462;2023-07-29T08:03:09;19.20;99.90
14401;DHT22;7285;50.894;5.462;2023-07-29T08:05:36;19.40;99.90
14401;DHT22;7285;50.894;5.462;2023-07-29T08:08:03;19.50;99.90
14401;DHT22;7285;50.894;5.462;2023-07-29T08:10:30;19.50;99.90
14401;DHT22;7285;50.894;5.462;2023-07-29T08:12:57;19.50;99.90
14401;DHT22;7285;50.894;5.462;2023-07-29T08:15:24;19.50;1.00
14401;DHT22;7285;50.894;5.462;2023-07-29T08:17:51;19.60;1.00
14401;DHT22;7285;50.894;5.462;2023-07-29T08:20:18;19.80;1.00
14401;DHT22;7285;50.894;5.462;2023-07-29T08:22:45;20.00;1.00
14401;DHT22;7285;50.894;5.462;2023-07-29T08:25:12;20.10;1.00
14401;DHT22;7285;50.894;5.462;2023-07-29T08:27:39;20.20;99.90
14401;DHT22;7285;50.894;5.462;2023-07-29T08:30:09;20.40;1.00
14401;DHT22;7285;50.894;5.462;2023-07-29T08:32:36;20.60;1.00
14401;DHT22;7285;50.894;5.462;2023-07-29T08:35:03;20.80;1.00
14401;DHT22;7285;50.894;5.462;2023-07-29T08:37:30;21.00;1.00
14401;DHT22;7285;50.894;5.462;2023-07-29T08:39:57;21.20;1.00
14401;DHT22;7285;50.894;5.462;2023-07-29T08:42:27;21.20;1.00
14401;DHT22;7285;50.894;5.462;2023-07-29T08:44:56;21.20;1.00
14401;DHT22;7285;50.894;5.462;2023-07-29T08:47:24;21.20;1.00
14401;DHT22;7285;50.894;5.462;2023-07-29T08:49:53;21.30;1.00
14401;DHT22;7285;50.894;5.462;2023-07-29T08:52:21;21.40;99.90
14401;DHT22;7285;50.894;5.462;2023-07-29T08:54:48;21.40;1.00
14401;DHT22;7285;50.894;5.462;2023-07-29T08:57:15;21.30;19.20
14401;DHT22;7285;50.894;5.462;2023-07-29T08:59:42;21.30;99.90
14401;DHT22;7285;50.894;5.462;2023-07-29T09:02:10;21.30;1.00
14401;DHT22;7285;50.894;5.462;2023-07-29T09:04:38;21.30;1.00
14401;DHT22;7285;50.894;5.462;2023-07-29T09:07:05;21.40;99.90
14401;DHT22;7285;50.894;5.462;2023-07-29T09:09:33;21.70;99.90
14401;DHT22;7285;50.894;5.462;2023-07-29T09:12:01;22.00;99.90
14401;DHT22;7285;50.894;5.462;2023-07-29T09:14:28;22.10;1.00
14401;DHT22;7285;50.894;5.462;2023-07-29T09:16:55;22.20;99.90
14401;DHT22;7285;50.894;5.462;2023-07-29T09:19:25;22.60;99.90
14401;DHT22;7285;50.894;5.462;2023-07-29T09:21:53;22.90;1.00
14401;DHT22;7285;50.894;5.462;2023-07-29T09:24:21;22.90;1.00
14401;DHT22;7285;50.894;5.462;2023-07-29T09:26:51;22.80;99.90
14401;DHT22;7285;50.894;5.462;2023-07-29T09:29:22;22.70;17.10
14401;DHT22;7285;50.894;5.462;2023-07-29T09:31:49;22.80;1.00
14401;DHT22;7285;50.894;5.462;2023-07-29T09:34:16;22.70;1.00
14401;DHT22;7285;50.894;5.462;2023-07-29T09:36:43;23.00;1.00
14401;DHT22;7285;50.894;5.462;2023-07-29T09:39:12;23.40;99.90
14401;DHT22;7285;50.894;5.462;2023-07-29T09:41:39;23.50;96.80
14401;DHT22;7285;50.894;5.462;2023-07-29T09:44:07;23.10;1.00
14401;DHT22;7285;50.894;5.462;2023-07-29T09:46:36;23.20;1.00
14401;DHT22;7285;50.894;5.462;2023-07-29T09:49:04;23.20;1.00
14401;DHT22;7285;50.894;5.462;2023-07-29T09:51:31;23.00;1.00
14401;DHT22;7285;50.894;5.462;2023-07-29T09:54:03;22.80;99.90
14401;DHT22;7285;50.894;5.462;2023-07-29T09:56:31;22.50;99.90
14401;DHT22;7285;50.894;5.462;2023-07-29T09:58:58;22.20;99.90
14401;DHT22;7285;50.894;5.462;2023-07-29T10:01:25;22.30;99.90
14401;DHT22;7285;50.894;5.462;2023-07-29T10:03:52;22.80;99.90
14401;DHT22;7285;50.894;5.462;2023-07-29T10:06:22;23.20;99.90
14401;DHT22;7285;50.894;5.462;2023-07-29T10:08:50;23.60;99.90
14401;DHT22;7285;50.894;5.462;2023-07-29T10:11:18;23.50;75.30
14401;DHT22;7285;50.894;5.462;2023-07-29T10:13:49;23.90;1.00
14401;DHT22;7285;50.894;5.462;2023-07-29T10:16:18;24.20;1.00
14401;DHT22;7285;50.894;5.462;2023-07-29T10:18:46;24.20;1.00
14401;DHT22;7285;50.894;5.462;2023-07-29T10:21:14;24.10;1.00
14401;DHT22;7285;50.894;5.462;2023-07-29T10:23:43;24.00;1.00
14401;DHT22;7285;50.894;5.462;2023-07-29T10:26:16;23.80;1.00
14401;DHT22;7285;50.894;5.462;2023-07-29T10:28:48;23.70;1.00
14401;DHT22;7285;50.894;5.462;2023-07-29T10:31:20;23.90;1.00
14401;DHT22;7285;50.894;5.462;2023-07-29T10:33:50;23.80;1.00
14401;DHT22;7285;50.894;5.462;2023-07-29T10:36:17;24.20;1.00
14401;DHT22;7285;50.894;5.462;2023-07-29T10:38:45;24.40;1.00
14401;DHT22;7285;50.894;5.462;2023-07-29T10:41:12;24.60;1.00
14401;DHT22;7285;50.894;5.462;2023-07-29T10:43:39;24.60;1.00
14401;DHT22;7285;50.894;5.462;2023-07-29T10:46:18;24.80;1.00
14401;DHT22;7285;50.894;5.462;2023-07-29T10:48:52;24.60;1.00
14401;DHT22;7285;50.894;5.462;2023-07-29T10:51:27;24.60;1.00
14401;DHT22;7285;50.894;5.462;2023-07-29T10:53:57;25.00;1.00
14401;DHT22;7285;50.894;5.462;2023-07-29T10:56:29;25.40;1.00
14401;DHT22;7285;50.894;5.462;2023-07-29T10:58:58;25.60;1.00
14401;DHT22;7285;50.894;5.462;2023-07-29T11:01:31;25.20;99.90
14401;DHT22;7285;50.894;5.462;2023-07-29T11:04:23;24.80;99.90
14401;DHT22;7285;50.894;5.462;2023-07-29T11:09:59;25.20;99.90
14401;DHT22;7285;50.894;5.462;2023-07-29T11:12:41;25.20;1.00
14401;DHT22;7285;50.894;5.462;2023-07-29T11:15:17;25.20;1.00
14401;DHT22;7285;50.894;5.462;2023-07-29T11:17:47;25.10;99.90
14401;DHT22;7285;50.894;5.462;2023-07-29T11:20:15;24.50;99.90
14401;DHT22;7285;50.894;5.462;2023-07-29T11:22:43;24.20;99.90
14401;DHT22;7285;50.894;5.462;2023-07-29T11:25:11;24.30;99.90
14401;DHT22;7285;50.894;5.462;2023-07-29T11:27:38;24.30;1.00
14401;DHT22;7285;50.894;5.462;2023-07-29T11:30:07;23.90;99.90
14401;DHT22;7285;50.894;5.462;2023-07-29T11:32:35;23.60;1.00
14401;DHT22;7285;50.894;5.462;2023-07-29T11:35:05;23.50;1.00
14401;DHT22;7285;50.894;5.462;2023-07-29T11:37:33;23.30;1.00
14401;DHT22;7285;50.894;5.462;2023-07-29T11:40:01;22.70;1.00
14401;DHT22;7285;50.894;5.462;2023-07-29T11:42:28;22.40;1.00
14401;DHT22;7285;50.894;5.462;2023-07-29T11:44:58;22.20;99.90
14401;DHT22;7285;50.894;5.462;2023-07-29T11:47:25;22.00;1.00
14401;DHT22;7285;50.894;5.462;2023-07-29T11:49:52;21.80;1.00
14401;DHT22;7285;50.894;5.462;2023-07-29T11:52:21;21.70;87.80
14401;DHT22;7285;50.894;5.462;2023-07-29T11:54:48;21.40;99.90
14401;DHT22;7285;50.894;5.462;2023-07-29T11:57:16;21.10;99.90
14401;DHT22;7285;50.894;5.462;2023-07-29T11:59:44;20.90;1.00
14401;DHT22;7285;50.894;5.462;2023-07-29T12:02:13;20.90;1.00
14401;DHT22;7285;50.894;5.462;2023-07-29T12:04:42;20.70;1.00
14401;DHT22;7285;50.894;5.462;2023-07-29T12:07:10;20.40;1.00
14401;DHT22;7285;50.894;5.462;2023-07-29T12:09:39;20.10;99.90
14401;DHT22;7285;50.894;5.462;2023-07-29T12:12:07;19.90;1.00
14401;DHT22;7285;50.894;5.462;2023-07-29T12:14:34;19.10;99.90
14401;DHT22;7285;50.894;5.462;2023-07-29T12:17:02;18.10;99.90
14401;DHT22;7285;50.894;5.462;2023-07-29T12:19:33;18.50;69.40
14401;DHT22;7285;50.894;5.462;2023-07-29T12:22:01;19.00;1.00
14401;DHT22;7285;50.894;5.462;2023-07-29T12:24:29;19.20;99.90
14401;DHT22;7285;50.894;5.462;2023-07-29T12:26:58;19.00;99.90
14401;DHT22;7285;50.894;5.462;2023-07-29T12:29:28;19.00;1.00
14401;DHT22;7285;50.894;5.462;2023-07-29T12:32:00;18.90;1.00
14401;DHT22;7285;50.894;5.462;2023-07-29T12:34:28;18.80;1.00
14401;DHT22;7285;50.894;5.462;2023-07-29T12:36:57;18.30;1.00
14401;DHT22;7285;50.894;5.462;2023-07-29T12:39:25;18.20;1.00
14401;DHT22;7285;50.894;5.462;2023-07-29T12:41:54;18.20;1.00
14401;DHT22;7285;50.894;5.462;2023-07-29T12:44:24;18.20;1.00
14401;DHT22;7285;50.894;5.462;2023-07-29T12:46:51;18.20;1.00
14401;DHT22;7285;50.894;5.462;2023-07-29T12:49:18;18.10;3.80
14401;DHT22;7285;50.894;5.462;2023-07-29T12:51:46;18.20;48.50
14401;DHT22;7285;50.894;5.462;2023-07-29T12:54:13;18.50;99.90
14401;DHT22;7285;50.894;5.462;2023-07-29T12:56:40;18.40;99.90
14401;DHT22;7285;50.894;5.462;2023-07-29T12:59:07;18.80;99.90
14401;DHT22;7285;50.894;5.462;2023-07-29T13:01:35;19.50;99.90
14401;DHT22;7285;50.894;5.462;2023-07-29T13:04:02;20.80;99.90
14401;DHT22;7285;50.894;5.462;2023-07-29T13:06:29;20.90;99.90
14401;DHT22;7285;50.894;5.462;2023-07-29T13:08:56;21.70;99.90
14401;DHT22;7285;50.894;5.462;2023-07-29T13:11:23;21.90;99.90
14401;DHT22;7285;50.894;5.462;2023-07-29T13:13:51;22.70;99.90
14401;DHT22;7285;50.894;5.462;2023-07-29T13:16:18;22.30;39.40
14401;DHT22;7285;50.894;5.462;2023-07-29T13:18:46;21.70;1.00
14401;DHT22;7285;50.894;5.462;2023-07-29T13:21:14;21.50;1.00
14401;DHT22;7285;50.894;5.462;2023-07-29T13:23:41;21.20;1.00
14401;DHT22;7285;50.894;5.462;2023-07-29T13:26:07;21.20;1.00
14401;DHT22;7285;50.894;5.462;2023-07-29T13:28:34;21.60;1.00
14401;DHT22;7285;50.894;5.462;2023-07-29T13:31:01;21.70;1.00
14401;DHT22;7285;50.894;5.462;2023-07-29T13:33:28;22.00;1.00
14401;DHT22;7285;50.894;5.462;2023-07-29T13:36:05;22.10;99.90
14401;DHT22;7285;50.894;5.462;2023-07-29T13:38:33;21.80;1.00
14401;DHT22;7285;50.894;5.462;2023-07-29T13:41:00;22.30;1.00
14401;DHT22;7285;50.894;5.462;2023-07-29T13:43:27;22.20;99.90
14401;DHT22;7285;50.894;5.462;2023-07-29T13:45:54;21.90;27.20
14401;DHT22;7285;50.894;5.462;2023-07-29T13:48:21;21.70;1.00
14401;DHT22;7285;50.894;5.462;2023-07-29T13:50:48;21.50;99.90
14401;DHT22;7285;50.894;5.462;2023-07-29T13:53:18;21.30;1.00
14401;DHT22;7285;50.894;5.462;2023-07-29T13:55:45;21.00;1.00
14401;DHT22;7285;50.894;5.462;2023-07-29T13:58:12;20.60;1.00
14401;DHT22;7285;50.894;5.462;2023-07-29T14:00:39;20.30;1.00
14401;DHT22;7285;50.894;5.462;2023-07-29T14:03:06;20.30;41.70
14401;DHT22;7285;50.894;5.462;2023-07-29T14:05:33;20.40;99.90
14401;DHT22;7285;50.894;5.462;2023-07-29T14:08:00;20.60;99.90
14401;DHT22;7285;50.894;5.462;2023-07-29T14:10:28;20.70;99.90
14401;DHT22;7285;50.894;5.462;2023-07-29T14:12:56;20.90;99.90
14401;DHT22;7285;50.894;5.462;2023-07-29T14:15:23;21.70;99.90
14401;DHT22;7285;50.894;5.462;2023-07-29T14:17:49;22.10;99.90
14401;DHT22;7285;50.894;5.462;2023-07-29T14:20:17;22.30;99.90
14401;DHT22;7285;50.894;5.462;2023-07-29T14:22:44;22.00;99.90
14401;DHT22;7285;50.894;5.462;2023-07-29T14:25:11;21.90;99.90
14401;DHT22;7285;50.894;5.462;2023-07-29T14:27:41;21.60;99.90
14401;DHT22;7285;50.894;5.462;2023-07-29T14:30:08;21.70;99.90
14401;DHT22;7285;50.894;5.462;2023-07-29T14:32:35;21.60;99.90
14401;DHT22;7285;50.894;5.462;2023-07-29T14:35:04;22.10;99.90
14401;DHT22;7285;50.894;5.462;2023-07-29T14:37:33;22.10;1.00
14401;DHT22;7285;50.894;5.462;2023-07-29T14:40:01;22.10;65.70
14401;DHT22;7285;50.894;5.462;2023-07-29T14:42:28;22.10;36.00
14401;DHT22;7285;50.894;5.462;2023-07-29T14:44:56;22.00;1.00
14401;DHT22;7285;50.894;5.462;2023-07-29T14:47:23;22.50;1.00
14401;DHT22;7285;50.894;5.462;2023-07-29T14:49:50;23.20;1.00
14401;DHT22;7285;50.894;5.462;2023-07-29T14:52:17;23.80;1.00
14401;DHT22;7285;50.894;5.462;2023-07-29T14:54:44;24.10;1.00
14401;DHT22;7285;50.894;5.462;2023-07-29T14:57:11;23.90;1.00
14401;DHT22;7285;50.894;5.462;2023-07-29T14:59:38;24.20;99.90
14401;DHT22;7285;50.894;5.462;2023-07-29T15:02:07;24.20;1.00
14401;DHT22;7285;50.894;5.462;2023-07-29T15:04:34;24.40;1.00
14401;DHT22;7285;50.894;5.462;2023-07-29T15:07:02;24.10;1.00
14401;DHT22;7285;50.894;5.462;2023-07-29T15:09:29;23.60;99.90
14401;DHT22;7285;50.894;5.462;2023-07-29T15:11:56;23.40;1.00
14401;DHT22;7285;50.894;5.462;2023-07-29T15:14:23;23.30;99.90
14401;DHT22;7285;50.894;5.462;2023-07-29T15:16:50;23.20;1.00
14401;DHT22;7285;50.894;5.462;2023-07-29T15:19:18;23.70;12.70
14401;DHT22;7285;50.894;5.462;2023-07-29T15:21:46;24.30;1.00
14401;DHT22;7285;50.894;5.462;2023-07-29T15:24:13;24.50;99.90
14401;DHT22;7285;50.894;5.462;2023-07-29T15:26:41;24.60;1.00
14401;DHT22;7285;50.894;5.462;2023-07-29T15:29:08;25.00;1.00
14401;DHT22;7285;50.894;5.462;2023-07-29T15:31:35;24.90;99.90
14401;DHT22;7285;50.894;5.462;2023-07-29T15:34:02;24.50;99.90
14401;DHT22;7285;50.894;5.462;2023-07-29T15:36:32;24.20;1.00
14401;DHT22;7285;50.894;5.462;2023-07-29T15:38:59;24.20;99.90
14401;DHT22;7285;50.894;5.462;2023-07-29T15:41:26;24.20;99.90
14401;DHT22;7285;50.894;5.462;2023-07-29T15:43:54;24.10;1.00
14401;DHT22;7285;50.894;5.462;2023-07-29T15:46:21;24.00;99.90
14401;DHT22;7285;50.894;5.462;2023-07-29T15:48:48;23.70;99.90
14401;DHT22;7285;50.894;5.462;2023-07-29T15:51:15;23.60;6.20
14401;DHT22;7285;50.894;5.462;2023-07-29T15:53:43;23.30;99.90
14401;DHT22;7285;50.894;5.462;2023-07-29T15:56:10;23.00;1.00
14401;DHT22;7285;50.894;5.462;2023-07-29T15:58:37;22.60;99.90